Route Details

Aircraft Information
Group: European Fleet
Types: A30F, A31F, B738
Route Data
Distance: 281nm
Duration: 1h 00m
Origin METAR: LSGG 160050Z AUTO VRB01KT 9999 NCD 15/12 Q1011 NOSIG
Dest. METAR: EDDK 160020Z AUTO 14006KT CAVOK 18/14 Q1007 NOSIG
Freight Data
(for Aug 16, 2022)
Load Factor:
84%
Manifested Cargo: 67,729lbs
Financial History
Total Freight: 306,260lbs
Average Load: 0lbs/flt
Fuel Used: 98,660lbs
Avg. Fuel Used: 0lbs/flt
Fuel Expense: $46,113
Avg. Fuel Expense: $0
Avg. Fuel Cost: $0/lbs
Total Gross Income: $602,659
Pilot Pay: $1,813
Total Expenses: $100,325
Total Revenue: $413,263
Average Revenue: $0

Capitol Logistics 582




LSGG
Geneve-Cointrin Airport
Geneva, CH
EDDK
Cologne Bonn Airport
Cologne, DE